Time;durP1;ratioP1;P1;durP2;ratioP2;P2;SDS_P1;SDS_P2;PMS_P1;PMS_P2;Temp;Humidity;BMP_temperature;BMP_pressure;BME280_temperature;BME280_humidity;BME280_pressure;Samples;Min_cycle;Max_cycle;Signal;HPM_P1;HPM_P2
2022/07/30 00:00:34;;;;;;;2.47;2.20;;;23.50;99.90;;;;;;5064475;28;20478;-83
2022/07/30 00:03:02;;;;;;;2.93;2.60;;;23.50;99.90;;;;;;5063722;28;20829;-83
2022/07/30 00:05:30;;;;;;;2.70;2.50;;;23.50;99.90;;;;;;5064083;28;20457;-84
2022/07/30 00:07:59;;;;;;;2.83;2.00;;;23.40;99.90;;;;;;5065212;28;20473;-83
2022/07/30 00:10:27;;;;;;;2.10;1.93;;;23.40;99.90;;;;;;5065826;28;20942;-83
2022/07/30 00:12:57;;;;;;;2.77;2.20;;;23.40;99.90;;;;;;5063918;28;20486;-82
2022/07/30 00:15:25;;;;;;;2.63;2.30;;;23.40;99.90;;;;;;5064124;28;20446;-83
2022/07/30 00:17:53;;;;;;;2.33;2.17;;;23.40;99.90;;;;;;5064609;28;20903;-83
2022/07/30 00:20:22;;;;;;;2.40;2.13;;;23.30;99.90;;;;;;5065827;28;20569;-84
2022/07/30 00:22:54;;;;;;;2.23;2.13;;;23.30;99.90;;;;;;5066518;28;20587;-83
2022/07/30 00:25:23;;;;;;;2.57;2.00;;;23.30;99.90;;;;;;5101166;28;21067;-83
2022/07/30 00:27:51;;;;;;;3.20;2.13;;;23.30;99.90;;;;;;5067811;28;20474;-83
2022/07/30 00:30:20;;;;;;;3.57;2.20;;;23.20;99.90;;;;;;5067681;28;20519;-83
2022/07/30 00:32:49;;;;;;;2.77;1.90;;;23.20;99.90;;;;;;5067333;28;20453;-83
2022/07/30 00:35:17;;;;;;;2.83;2.53;;;23.30;99.90;;;;;;5068298;28;20456;-83
2022/07/30 00:37:45;;;;;;;3.63;2.67;;;23.20;99.90;;;;;;5068486;28;20481;-83
2022/07/30 00:40:13;;;;;;;2.13;2.03;;;23.20;99.90;;;;;;5068310;28;20481;-83
2022/07/30 00:42:44;;;;;;;2.73;2.07;;;23.20;99.90;;;;;;5068456;28;20472;-83
2022/07/30 00:45:13;;;;;;;2.93;2.47;;;23.20;99.90;;;;;;5068577;28;20523;-83
2022/07/30 00:47:43;;;;;;;13.03;2.80;;;23.20;99.90;;;;;;5069518;28;20481;-82
2022/07/30 00:50:13;;;;;;;2.60;2.20;;;23.20;99.90;;;;;;5068502;28;20458;-82
2022/07/30 00:52:42;;;;;;;2.60;2.40;;;23.20;99.90;;;;;;5066589;28;20468;-83
2022/07/30 00:55:13;;;;;;;3.27;2.60;;;23.20;99.90;;;;;;5099380;28;20466;-83
2022/07/30 00:57:41;;;;;;;3.10;2.80;;;23.20;99.90;;;;;;5067633;28;20539;-82
2022/07/30 01:00:12;;;;;;;2.60;2.40;;;23.20;99.90;;;;;;5067212;28;20478;-83
2022/07/30 01:02:42;;;;;;;2.77;2.53;;;23.20;99.90;;;;;;5099608;28;20461;-84
2022/07/30 01:05:10;;;;;;;2.63;2.43;;;23.10;99.90;;;;;;5065598;28;20857;-83
2022/07/30 01:07:39;;;;;;;2.97;2.77;;;23.10;99.90;;;;;;5067932;28;20481;-83
2022/07/30 01:10:09;;;;;;;2.47;2.10;;;23.10;99.90;;;;;;5068613;28;21154;-83
2022/07/30 01:12:38;;;;;;;1.93;1.83;;;23.10;99.90;;;;;;5069954;28;20464;-83
2022/07/30 01:15:08;;;;;;;2.83;2.63;;;23.10;99.90;;;;;;5069913;28;20465;-84
2022/07/30 01:17:37;;;;;;;2.40;2.20;;;23.10;99.90;;;;;;5068516;28;20476;-82
2022/07/30 01:20:10;;;;;;;2.97;2.40;;;23.10;99.90;;;;;;5067281;28;20466;-83
2022/07/30 01:23:01;;;;;;;2.50;2.40;;;23.00;99.90;;;;;;5071840;28;20976;-84
2022/07/30 01:25:55;;;;;;;3.50;2.17;;;23.00;99.90;;;;;;5098132;28;20480;-83
2022/07/30 01:28:27;;;;;;;3.03;2.50;;;23.00;99.90;;;;;;5098986;28;20482;-83
2022/07/30 01:30:57;;;;;;;2.67;2.37;;;23.00;99.90;;;;;;5065154;28;20458;-84
2022/07/30 01:33:26;;;;;;;3.27;1.83;;;23.00;99.90;;;;;;5062678;28;20457;-82
2022/07/30 01:35:56;;;;;;;3.53;2.20;;;23.00;99.90;;;;;;5065864;28;20814;-83
2022/07/30 01:38:26;;;;;;;2.53;2.30;;;23.00;99.90;;;;;;5062274;28;20468;-83
2022/07/30 01:41:00;;;;;;;2.70;2.50;;;22.90;99.90;;;;;;5068027;28;20482;-83
2022/07/30 01:43:30;;;;;;;2.73;2.00;;;22.90;99.90;;;;;;5066679;28;20458;-83
2022/07/30 01:45:59;;;;;;;2.57;2.37;;;22.90;99.90;;;;;;5066466;28;20496;-82
2022/07/30 01:48:28;;;;;;;3.17;2.97;;;22.80;99.90;;;;;;5066427;28;20476;-83
2022/07/30 01:51:00;;;;;;;4.40;2.70;;;22.80;99.90;;;;;;5067387;28;20449;-83
2022/07/30 01:53:32;;;;;;;2.17;2.07;;;22.80;99.90;;;;;;5063714;28;20459;-83
2022/07/30 01:56:02;;;;;;;2.57;2.37;;;22.80;99.90;;;;;;5063532;28;20497;-83
2022/07/30 01:58:35;;;;;;;2.40;2.30;;;22.80;99.90;;;;;;5065610;28;20482;-83
2022/07/30 02:01:04;;;;;;;2.80;2.10;;;22.80;99.90;;;;;;5066950;28;20486;-83
2022/07/30 02:03:32;;;;;;;1.90;1.80;;;22.80;99.90;;;;;;5066826;28;20461;-83
2022/07/30 02:06:08;;;;;;;2.37;2.07;;;22.70;99.90;;;;;;5066164;28;20560;-83
2022/07/30 02:08:40;;;;;;;4.53;2.47;;;22.70;99.90;;;;;;5066334;28;20882;-83
2022/07/30 02:11:12;;;;;;;2.90;2.70;;;22.80;99.90;;;;;;5067264;28;20538;-83
2022/07/30 02:13:50;;;;;;;3.60;2.40;;;22.70;99.90;;;;;;5066444;28;20447;-83
2022/07/30 02:16:25;;;;;;;2.80;2.40;;;22.70;99.90;;;;;;5061508;28;21009;-84
2022/07/30 02:19:02;;;;;;;3.30;2.30;;;22.70;99.90;;;;;;5066967;28;20482;-83
2022/07/30 02:21:38;;;;;;;3.13;2.50;;;22.70;99.90;;;;;;5066036;28;21042;-83
2022/07/30 02:24:08;;;;;;;2.67;2.47;;;22.70;99.90;;;;;;5067024;28;20583;-82
2022/07/30 02:26:40;;;;;;;2.47;2.27;;;22.70;99.90;;;;;;5067328;28;21042;-84
2022/07/30 02:29:10;;;;;;;3.10;2.10;;;22.70;99.90;;;;;;5066277;28;20466;-82
2022/07/30 02:31:40;;;;;;;3.70;2.00;;;22.70;99.90;;;;;;5066843;28;20450;-82
2022/07/30 02:34:10;;;;;;;2.20;2.03;;;22.60;99.90;;;;;;5064877;28;20458;-83
2022/07/30 02:36:42;;;;;;;3.20;2.80;;;22.60;99.90;;;;;;5064534;28;20493;-84
2022/07/30 02:39:13;;;;;;;2.23;2.13;;;22.60;99.90;;;;;;5066480;28;20669;-83
2022/07/30 02:41:45;;;;;;;3.50;3.20;;;22.60;99.90;;;;;;5065651;28;20480;-84
2022/07/30 02:44:18;;;;;;;2.47;2.27;;;22.50;99.90;;;;;;5065253;28;20569;-83
2022/07/30 02:46:47;;;;;;;6.83;3.00;;;22.50;99.90;;;;;;5065093;28;20446;-83
2022/07/30 02:49:20;;;;;;;4.17;2.70;;;22.50;99.90;;;;;;5067378;28;20485;-83
2022/07/30 02:51:49;;;;;;;2.83;2.60;;;22.50;99.90;;;;;;5063518;28;20865;-83
2022/07/30 02:54:19;;;;;;;2.90;2.70;;;22.50;99.90;;;;;;5065813;28;20463;-83
2022/07/30 02:56:51;;;;;;;3.23;3.03;;;22.50;99.90;;;;;;5064430;28;20458;-82
2022/07/30 02:59:21;;;;;;;2.40;2.13;;;22.50;99.90;;;;;;5059347;28;20483;-82
2022/07/30 03:01:51;;;;;;;2.90;2.70;;;22.50;99.90;;;;;;5064336;28;20813;-83
2022/07/30 03:04:21;;;;;;;2.70;2.50;;;22.50;99.90;;;;;;5064269;28;20459;-83
2022/07/30 03:06:50;;;;;;;3.70;2.73;;;22.40;99.90;;;;;;5065833;28;20517;-83
2022/07/30 03:09:20;;;;;;;3.13;2.50;;;22.40;99.90;;;;;;5062568;28;20475;-83
2022/07/30 03:11:52;;;;;;;2.83;2.63;;;22.40;99.90;;;;;;5064817;28;20467;-83
2022/07/30 03:14:20;;;;;;;3.30;3.07;;;22.40;99.90;;;;;;5065713;28;20563;-83
2022/07/30 03:16:56;;;;;;;3.30;3.00;;;22.30;99.90;;;;;;5063177;28;20460;-83
2022/07/30 03:19:28;;;;;;;2.63;2.43;;;22.30;99.90;;;;;;5065929;28;20482;-83
2022/07/30 03:21:58;;;;;;;3.03;2.73;;;22.30;99.90;;;;;;5065006;28;20480;-82
2022/07/30 03:24:28;;;;;;;4.63;3.50;;;22.30;99.90;;;;;;5066694;28;20449;-83
2022/07/30 03:27:02;;;;;;;3.47;3.13;;;22.30;99.90;;;;;;5063130;28;20434;-83
2022/07/30 03:29:32;;;;;;;4.57;4.27;;;22.30;99.90;;;;;;5062315;28;20535;-83
2022/07/30 03:32:01;;;;;;;2.93;2.73;;;22.30;99.90;;;;;;5064774;28;20983;-83
2022/07/30 03:34:33;;;;;;;3.03;2.83;;;22.30;99.90;;;;;;5064726;28;20486;-83
2022/07/30 03:37:05;;;;;;;3.53;2.97;;;22.30;99.90;;;;;;5064553;28;20463;-83
2022/07/30 03:39:34;;;;;;;3.20;2.90;;;22.30;99.90;;;;;;5063230;28;20891;-83
2022/07/30 03:42:06;;;;;;;4.33;3.13;;;22.30;99.90;;;;;;5064983;28;20471;-83
2022/07/30 03:44:35;;;;;;;5.03;3.50;;;22.30;99.90;;;;;;5066375;28;20472;-83
2022/07/30 03:47:05;;;;;;;3.57;3.27;;;22.20;99.90;;;;;;5061906;28;20458;-83
2022/07/30 03:49:34;;;;;;;3.70;3.40;;;22.20;99.90;;;;;;5067183;28;20477;-84
2022/07/30 03:52:03;;;;;;;3.73;3.30;;;22.20;99.90;;;;;;5067385;28;20450;-83
2022/07/30 03:54:33;;;;;;;5.07;3.57;;;22.20;99.90;;;;;;5066125;28;20541;-82
2022/07/30 03:57:01;;;;;;;3.33;3.10;;;22.10;99.90;;;;;;5068309;28;20590;-83
2022/07/30 03:59:32;;;;;;;3.27;3.07;;;22.10;99.90;;;;;;5062318;28;20471;-83
2022/07/30 04:02:03;;;;;;;3.57;3.33;;;22.10;99.90;;;;;;5066391;28;20532;-83
2022/07/30 04:04:34;;;;;;;3.67;3.37;;;22.10;99.90;;;;;;5065804;28;20499;-83
2022/07/30 04:07:03;;;;;;;4.63;3.57;;;22.10;99.90;;;;;;5065835;28;20461;-82
2022/07/30 04:09:31;;;;;;;3.17;2.97;;;22.10;99.90;;;;;;5064310;28;20471;-82
2022/07/30 04:11:59;;;;;;;4.40;3.30;;;22.00;99.90;;;;;;5068443;28;20465;-83
2022/07/30 04:14:38;;;;;;;4.13;3.83;;;22.00;99.90;;;;;;5067884;28;20451;-82
2022/07/30 04:17:13;;;;;;;3.77;3.47;;;21.90;99.90;;;;;;5067890;28;20515;-83
2022/07/30 04:19:46;;;;;;;3.67;3.37;;;21.90;99.90;;;;;;5063493;28;20476;-83
2022/07/30 04:22:20;;;;;;;3.53;3.17;;;21.90;99.90;;;;;;5063880;28;20531;-82
2022/07/30 04:24:49;;;;;;;3.53;3.20;;;21.80;99.90;;;;;;5064954;28;20438;-83
2022/07/30 04:27:17;;;;;;;3.90;3.60;;;21.90;99.90;;;;;;5067428;28;20445;-83
2022/07/30 04:29:46;;;;;;;3.10;2.90;;;21.80;99.90;;;;;;5068010;28;20909;-84
2022/07/30 04:32:16;;;;;;;4.03;3.73;;;21.80;99.90;;;;;;5068898;28;20505;-83
2022/07/30 04:34:48;;;;;;;3.40;3.10;;;21.80;99.90;;;;;;5067774;28;20459;-84
2022/07/30 04:37:18;;;;;;;6.20;4.07;;;21.70;99.90;;;;;;5068907;28;20457;-83
2022/07/30 04:39:48;;;;;;;3.03;2.83;;;21.80;99.90;;;;;;5067735;28;20458;-83
2022/07/30 04:42:16;;;;;;;3.80;3.57;;;21.70;99.90;;;;;;5068556;28;20512;-83
2022/07/30 04:44:45;;;;;;;4.07;3.77;;;21.70;99.90;;;;;;5068405;28;20490;-84
2022/07/30 04:47:13;;;;;;;3.80;3.50;;;21.70;99.90;;;;;;5067338;28;20462;-82
2022/07/30 04:49:44;;;;;;;3.70;3.40;;;21.70;99.90;;;;;;5065416;28;20458;-83
2022/07/30 04:52:13;;;;;;;4.30;3.90;;;21.70;99.90;;;;;;5069999;28;20902;-83
2022/07/30 04:54:44;;;;;;;3.20;3.00;;;21.70;99.90;;;;;;5068446;28;20504;-84
2022/07/30 04:57:14;;;;;;;4.80;3.37;;;21.70;99.90;;;;;;5068068;28;21084;-83
2022/07/30 04:59:43;;;;;;;3.70;3.20;;;21.70;99.90;;;;;;5066537;28;20817;-83
2022/07/30 05:02:12;;;;;;;4.17;3.27;;;21.70;99.90;;;;;;5065786;28;20571;-83
2022/07/30 05:04:42;;;;;;;3.40;3.20;;;21.80;99.90;;;;;;5068537;28;20500;-82
2022/07/30 05:07:13;;;;;;;4.07;3.67;;;21.80;99.90;;;;;;5062309;28;20466;-83
2022/07/30 05:09:42;;;;;;;3.87;3.40;;;21.80;99.90;;;;;;5068273;28;20451;-83
2022/07/30 05:12:10;;;;;;;5.43;3.80;;;21.80;99.90;;;;;;5067326;28;20555;-83
2022/07/30 05:14:38;;;;;;;3.30;3.00;;;21.80;99.90;;;;;;5067644;28;20463;-83
2022/07/30 05:17:07;;;;;;;5.43;4.40;;;21.80;99.90;;;;;;5068689;28;20438;-83
2022/07/30 05:19:35;;;;;;;4.40;4.00;;;21.90;99.90;;;;;;5071557;28;20471;-83
2022/07/30 05:22:04;;;;;;;6.60;4.17;;;21.90;99.90;;;;;;5067533;28;21117;-83
2022/07/30 05:24:33;;;;;;;5.23;4.83;;;21.90;99.90;;;;;;5095434;28;20528;-83
2022/07/30 05:27:01;;;;;;;3.77;3.47;;;21.90;99.90;;;;;;5066508;28;20518;-83
2022/07/30 05:29:30;;;;;;;6.13;3.50;;;21.90;99.90;;;;;;5067518;28;20917;-83
2022/07/30 05:31:58;;;;;;;4.30;3.80;;;22.00;99.90;;;;;;5065263;28;20453;-83
2022/07/30 05:34:30;;;;;;;3.07;2.87;;;22.00;99.90;;;;;;5066865;28;20512;-83
2022/07/30 05:36:58;;;;;;;5.87;3.87;;;22.10;99.90;;;;;;5067159;28;20470;-83
2022/07/30 05:39:28;;;;;;;13.20;3.93;;;22.10;99.90;;;;;;5065739;28;20581;-83
2022/07/30 05:41:56;;;;;;;3.40;3.17;;;22.20;99.90;;;;;;5068803;28;20934;-83
2022/07/30 05:44:24;;;;;;;4.70;4.10;;;22.20;99.90;;;;;;5064987;28;20470;-84
2022/07/30 05:46:52;;;;;;;4.80;3.23;;;22.30;99.90;;;;;;5064365;28;20453;-83
2022/07/30 05:49:21;;;;;;;4.90;3.97;;;22.30;99.90;;;;;;5068413;28;20982;-83
2022/07/30 05:51:49;;;;;;;6.07;4.27;;;22.40;99.90;;;;;;5069152;28;20450;-83
2022/07/30 05:54:17;;;;;;;4.63;3.67;;;22.40;99.90;;;;;;5065935;28;20545;-83
2022/07/30 05:56:46;;;;;;;4.53;4.10;;;22.40;99.90;;;;;;5065589;28;20700;-82
2022/07/30 05:59:15;;;;;;;4.33;4.00;;;22.50;99.90;;;;;;5067598;28;20470;-83
2022/07/30 06:01:43;;;;;;;4.60;3.60;;;22.50;99.90;;;;;;5067819;28;20459;-83
2022/07/30 06:04:11;;;;;;;4.77;3.90;;;22.50;99.90;;;;;;5068561;28;21059;-83
2022/07/30 06:06:40;;;;;;;7.70;4.80;;;22.50;99.90;;;;;;5068144;28;20479;-83
2022/07/30 06:09:08;;;;;;;5.63;4.07;;;22.50;99.90;;;;;;5068077;28;20490;-84
2022/07/30 06:11:36;;;;;;;6.40;4.60;;;22.60;99.90;;;;;;5065986;28;20458;-83
2022/07/30 06:14:05;;;;;;;4.50;3.67;;;22.60;99.90;;;;;;5069264;28;20537;-85
2022/07/30 06:16:34;;;;;;;4.80;4.40;;;22.60;99.90;;;;;;5062101;28;20461;-83
2022/07/30 06:19:02;;;;;;;4.40;4.03;;;22.70;99.90;;;;;;5068392;28;20476;-83
2022/07/30 06:21:30;;;;;;;5.27;4.07;;;22.70;99.90;;;;;;5068178;28;20534;-84
2022/07/30 06:24:18;;;;;;;4.47;4.07;;;22.80;99.90;;;;;;5066680;28;20563;-83
2022/07/30 06:26:49;;;;;;;6.07;3.43;;;22.80;99.90;;;;;;5070649;28;20453;-84
2022/07/30 06:29:20;;;;;;;4.00;3.70;;;22.90;99.90;;;;;;5070871;28;20470;-83
2022/07/30 06:31:48;;;;;;;4.50;3.77;;;22.90;99.90;;;;;;5067576;28;20528;-83
2022/07/30 06:34:16;;;;;;;5.40;4.77;;;22.90;99.90;;;;;;5071169;28;20808;-83
2022/07/30 06:36:44;;;;;;;3.67;3.47;;;23.00;99.90;;;;;;5069946;28;20501;-84
2022/07/30 06:39:12;;;;;;;4.80;4.13;;;23.00;99.90;;;;;;5066724;28;20457;-84
2022/07/30 06:41:42;;;;;;;3.93;3.53;;;23.00;99.90;;;;;;5068767;28;20547;-83
2022/07/30 06:44:10;;;;;;;4.53;3.57;;;23.10;99.90;;;;;;5069606;28;20823;-83
2022/07/30 06:46:39;;;;;;;5.83;4.50;;;23.10;99.90;;;;;;5067963;28;20836;-83
2022/07/30 06:49:09;;;;;;;4.20;3.90;;;23.20;99.90;;;;;;5056611;28;20471;-82
2022/07/30 06:51:37;;;;;;;4.33;3.73;;;23.30;99.90;;;;;;5067461;28;20437;-83
2022/07/30 06:54:05;;;;;;;3.93;3.53;;;23.40;99.90;;;;;;5068148;28;20439;-85
2022/07/30 06:56:33;;;;;;;4.13;3.50;;;23.60;99.90;;;;;;5092522;28;20443;-85
2022/07/30 06:59:01;;;;;;;3.60;3.20;;;23.70;99.90;;;;;;5065876;28;20482;-84
2022/07/30 07:01:29;;;;;;;3.83;3.53;;;23.80;99.90;;;;;;5071548;28;20444;-85
2022/07/30 07:03:59;;;;;;;3.93;3.63;;;24.00;99.90;;;;;;5066376;28;20566;-85
2022/07/30 07:06:27;;;;;;;4.05;3.40;;;24.10;99.90;;;;;;5065515;28;20517;-85
2022/07/30 07:08:55;;;;;;;4.60;4.20;;;24.10;99.90;;;;;;5066999;28;20220;-83
2022/07/30 07:11:24;;;;;;;5.20;3.80;;;24.20;99.90;;;;;;5067900;28;20451;-84
2022/07/30 07:13:52;;;;;;;5.03;4.20;;;24.30;99.90;;;;;;5059255;28;20447;-83
2022/07/30 07:16:23;;;;;;;4.10;3.70;;;24.40;99.90;;;;;;5066784;28;20447;-85
2022/07/30 07:18:52;;;;;;;3.97;3.27;;;24.40;99.90;;;;;;5070908;28;20481;-85
2022/07/30 07:21:22;;;;;;;3.67;2.73;;;24.40;99.90;;;;;;5066202;28;20809;-84
2022/07/30 07:23:50;;;;;;;7.33;3.70;;;24.50;99.90;;;;;;5068280;28;20475;-84
2022/07/30 07:26:18;;;;;;;5.37;3.90;;;24.50;99.90;;;;;;5063399;28;20466;-84
2022/07/30 07:28:46;;;;;;;4.00;3.60;;;24.60;99.90;;;;;;5096260;28;20497;-84
2022/07/30 07:31:14;;;;;;;3.90;3.30;;;24.60;99.90;;;;;;5066723;28;21032;-84
2022/07/30 07:34:02;;;;;;;2.57;2.37;;;24.70;99.90;;;;;;5063304;28;21192;-83
2022/07/30 07:36:34;;;;;;;2.97;2.77;;;24.70;99.90;;;;;;5067449;28;20458;-84
2022/07/30 07:39:02;;;;;;;4.17;2.10;;;24.70;99.90;;;;;;5068645;28;20482;-83
2022/07/30 07:41:30;;;;;;;4.60;4.20;;;24.70;99.90;;;;;;5069422;28;20451;-84
2022/07/30 07:44:16;;;;;;;3.23;2.40;;;24.70;99.90;;;;;;5067268;28;20471;-84
2022/07/30 07:46:44;;;;;;;3.10;2.80;;;24.80;99.90;;;;;;5070805;28;20451;-83
2022/07/30 07:49:12;;;;;;;3.10;2.80;;;24.80;99.90;;;;;;5071181;28;20474;-84
2022/07/30 07:51:42;;;;;;;2.90;2.60;;;24.80;99.90;;;;;;5071667;28;20523;-84
2022/07/30 07:54:15;;;;;;;2.53;2.33;;;24.80;99.90;;;;;;5068282;28;20818;-84
2022/07/30 07:56:51;;;;;;;3.50;2.70;;;24.80;99.90;;;;;;5066030;28;20454;-85
2022/07/30 07:59:20;;;;;;;4.30;2.83;;;24.90;99.90;;;;;;5060746;28;20526;-83
2022/07/30 08:01:49;;;;;;;3.87;3.03;;;24.90;99.90;;;;;;5071036;28;20450;-85
2022/07/30 08:04:18;;;;;;;2.57;2.37;;;24.90;99.90;;;;;;5064871;28;20596;-85
2022/07/30 08:06:47;;;;;;;2.60;2.27;;;25.00;99.90;;;;;;5067858;28;20446;-85
2022/07/30 08:09:16;;;;;;;2.27;2.07;;;25.00;99.90;;;;;;5066111;28;20478;-84
2022/07/30 08:11:44;;;;;;;2.90;2.70;;;25.00;99.90;;;;;;5071095;28;20454;-84
2022/07/30 08:14:12;;;;;;;2.20;2.00;;;25.00;99.90;;;;;;5067728;28;20512;-84
2022/07/30 08:16:40;;;;;;;2.23;2.03;;;25.20;99.90;;;;;;5069232;28;20462;-83
2022/07/30 08:19:08;;;;;;;2.20;2.00;;;25.20;99.90;;;;;;5065786;28;20469;-84
2022/07/30 08:21:36;;;;;;;2.10;2.00;;;25.20;99.90;;;;;;5072530;28;20981;-85
2022/07/30 08:24:07;;;;;;;2.10;1.90;;;25.20;99.90;;;;;;5066026;28;20532;-84
2022/07/30 08:26:35;;;;;;;2.23;1.60;;;25.20;99.90;;;;;;5073084;28;20458;-85
2022/07/30 08:29:03;;;;;;;1.90;1.80;;;25.30;99.90;;;;;;5072745;28;20478;-85
2022/07/30 08:31:31;;;;;;;1.80;1.70;;;25.30;99.90;;;;;;5071254;28;20450;-84
2022/07/30 08:33:59;;;;;;;1.93;1.83;;;25.40;99.90;;;;;;5071196;28;20450;-84
2022/07/30 08:36:27;;;;;;;2.60;1.70;;;25.40;99.90;;;;;;5066719;28;20517;-84
2022/07/30 08:38:56;;;;;;;2.40;1.70;;;25.50;99.90;;;;;;5069333;28;20470;-83
2022/07/30 08:41:26;;;;;;;2.80;1.93;;;25.50;99.90;;;;;;5070813;28;20832;-85
2022/07/30 08:43:55;;;;;;;4.83;1.73;;;25.60;99.90;;;;;;5066068;28;21009;-84
2022/07/30 08:46:25;;;;;;;2.90;1.93;;;25.60;99.90;;;;;;5070752;28;20450;-84
2022/07/30 08:48:53;;;;;;;1.87;1.77;;;25.60;99.90;;;;;;5070331;28;20470;-82
2022/07/30 08:51:23;;;;;;;1.67;1.50;;;25.60;99.90;;;;;;5069499;28;20538;-84
2022/07/30 08:53:52;;;;;;;3.30;1.87;;;25.70;99.90;;;;;;5068488;28;20438;-84
2022/07/30 08:56:20;;;;;;;1.83;1.63;;;25.70;99.90;;;;;;5068139;28;20451;-84
2022/07/30 08:58:51;;;;;;;2.37;1.80;;;25.80;99.90;;;;;;5067913;28;20860;-84
2022/07/30 09:01:19;;;;;;;2.07;1.97;;;25.80;99.90;;;;;;5070468;28;21185;-84
2022/07/30 09:03:47;;;;;;;1.90;1.60;;;25.90;99.90;;;;;;5069784;28;20503;-84
2022/07/30 09:06:15;;;;;;;2.07;1.77;;;25.90;99.90;;;;;;5066552;28;20458;-85
2022/07/30 09:08:43;;;;;;;2.50;2.30;;;26.00;99.90;;;;;;5069329;28;20959;-84
2022/07/30 09:11:12;;;;;;;2.10;1.70;;;26.00;99.90;;;;;;5073381;28;20500;-84
2022/07/30 09:13:43;;;;;;;2.63;2.37;;;26.00;99.90;;;;;;5066497;28;20533;-82
2022/07/30 09:16:21;;;;;;;4.47;1.63;;;26.10;99.90;;;;;;5073029;28;20446;-83
2022/07/30 09:18:50;;;;;;;2.40;1.60;;;26.10;99.90;;;;;;5075469;28;20482;-85
2022/07/30 09:21:22;;;;;;;3.93;1.60;;;26.10;99.90;;;;;;5081240;28;20450;-84
2022/07/30 09:23:58;;;;;;;2.03;1.47;;;26.10;99.90;;;;;;5070676;28;20467;-83
2022/07/30 09:26:27;;;;;;;2.07;1.30;;;26.20;99.90;;;;;;5065041;28;20456;-84
2022/07/30 09:28:55;;;;;;;1.47;1.37;;;26.20;99.90;;;;;;5076340;28;20482;-84
2022/07/30 09:31:26;;;;;;;1.40;1.30;;;26.20;99.90;;;;;;5069488;28;21193;-84
2022/07/30 09:33:54;;;;;;;2.07;1.97;;;26.20;99.90;;;;;;5071093;28;20447;-83
2022/07/30 09:36:22;;;;;;;1.60;1.50;;;26.30;99.90;;;;;;5074681;28;20458;-85
2022/07/30 09:38:54;;;;;;;1.67;1.40;;;26.30;99.90;;;;;;5101291;27;20479;-85
2022/07/30 09:41:34;;;;;;;1.40;1.30;;;26.30;99.90;;;;;;5070921;28;20466;-85
2022/07/30 09:44:07;;;;;;;3.70;1.70;;;26.30;99.90;;;;;;5070769;28;20461;-84
2022/07/30 09:46:45;;;;;;;2.40;1.60;;;26.40;99.90;;;;;;5068796;28;20457;-85
2022/07/30 09:49:15;;;;;;;2.70;1.57;;;26.40;99.90;;;;;;5077813;28;20505;-85
2022/07/30 09:51:44;;;;;;;4.17;1.57;;;26.40;99.90;;;;;;5075959;28;20549;-83
2022/07/30 09:54:24;;;;;;;2.50;1.57;;;26.40;99.90;;;;;;5073831;28;21275;-83
2022/07/30 09:57:06;;;;;;;1.50;1.40;;;26.40;99.90;;;;;;5073646;28;20451;-85
2022/07/30 09:59:53;;;;;;;1.43;1.30;;;26.40;99.90;;;;;;5070812;28;20528;-84
2022/07/30 10:02:29;;;;;;;2.97;1.30;;;26.40;99.90;;;;;;5071179;28;20942;-86
2022/07/30 10:05:10;;;;;;;1.87;1.50;;;26.50;99.90;;;;;;5070990;28;20515;-83
2022/07/30 10:07:49;;;;;;;1.70;1.60;;;26.50;99.90;;;;;;5071415;28;20467;-84
2022/07/30 10:10:20;;;;;;;2.27;1.50;;;26.60;99.90;;;;;;5068548;28;20457;-85
2022/07/30 10:12:56;;;;;;;3.20;1.40;;;26.60;99.90;;;;;;5083872;28;20455;-86
2022/07/30 10:15:29;;;;;;;2.57;1.83;;;26.60;99.90;;;;;;5066969;28;20455;-85
2022/07/30 10:18:02;;;;;;;1.63;1.53;;;26.60;99.90;;;;;;5065220;28;21118;-85
2022/07/30 10:20:34;;;;;;;4.40;2.40;;;26.60;99.90;;;;;;5067131;28;20466;-84
2022/07/30 10:23:06;;;;;;;2.60;1.40;;;26.70;99.90;;;;;;5069765;28;21067;-83
2022/07/30 10:25:37;;;;;;;5.07;1.63;;;26.70;99.90;;;;;;5060932;28;20511;-86
2022/07/30 10:28:22;;;;;;;1.50;1.40;;;26.70;99.90;;;;;;5082836;28;20476;-85
2022/07/30 10:30:52;;;;;;;1.80;1.60;;;26.80;99.90;;;;;;5067650;28;20508;-85
2022/07/30 10:33:23;;;;;;;1.30;1.20;;;26.80;99.90;;;;;;5075779;28;20552;-85
2022/07/30 10:36:05;;;;;;;1.97;1.30;;;26.90;99.90;;;;;;5077274;28;20443;-86
2022/07/30 10:38:39;;;;;;;1.60;1.50;;;26.80;99.90;;;;;;5070348;28;20479;-84
2022/07/30 10:41:17;;;;;;;1.57;1.47;;;26.80;99.90;;;;;;5064255;28;20481;-85
2022/07/30 10:44:22;;;;;;;1.67;1.57;;;26.80;99.90;;;;;;5064080;28;20463;-85
2022/07/30 10:47:00;;;;;;;1.53;1.30;;;26.80;99.90;;;;;;5075039;28;20447;-85
2022/07/30 10:49:37;;;;;;;1.97;1.80;;;26.80;99.90;;;;;;5064853;28;20536;-86
2022/07/30 10:52:10;;;;;;;1.47;1.37;;;26.90;99.90;;;;;;5073537;28;20462;-86
2022/07/30 10:54:43;;;;;;;2.20;1.60;;;26.90;99.90;;;;;;5078832;28;20442;-85
2022/07/30 10:57:13;;;;;;;1.93;1.30;;;27.00;99.90;;;;;;5075797;28;20454;-86
2022/07/30 11:00:15;;;;;;;2.07;1.40;;;26.90;99.90;;;;;;5072310;28;20465;-86
2022/07/30 11:03:22;;;;;;;1.50;1.40;;;27.00;99.70;;;;;;5058862;28;20458;-84
2022/07/30 11:06:12;;;;;;;1.70;1.60;;;27.00;98.70;;;;;;5064235;28;20478;-84
2022/07/30 11:08:44;;;;;;;3.23;1.50;;;27.00;99.50;;;;;;5061900;28;20555;-84
2022/07/30 11:11:43;;;;;;;1.50;1.40;;;27.10;99.40;;;;;;5067925;28;20468;-84
2022/07/30 11:14:57;;;;;;;1.53;1.20;;;27.10;99.30;;;;;;5064079;28;20543;-83
2022/07/30 11:18:02;;;;;;;1.50;1.40;;;27.10;99.90;;;;;;5069524;28;20482;-85
2022/07/30 11:20:33;;;;;;;1.70;1.60;;;27.10;99.70;;;;;;5069772;28;20457;-83
2022/07/30 11:23:37;;;;;;;3.40;1.40;;;27.20;99.90;;;;;;5069447;28;20446;-84
2022/07/30 11:26:07;;;;;;;1.60;1.50;;;27.20;98.60;;;;;;5056076;28;20544;-84
2022/07/30 11:28:43;;;;;;;1.30;1.20;;;27.20;99.90;;;;;;5070021;28;20888;-85
2022/07/30 11:31:30;;;;;;;2.30;1.50;;;27.20;98.10;;;;;;5069419;28;21026;-85
2022/07/30 11:34:28;;;;;;;1.40;1.30;;;27.30;97.90;;;;;;5069284;28;20458;-85
2022/07/30 11:37:11;;;;;;;2.03;1.20;;;27.20;96.70;;;;;;5068407;28;20535;-84
2022/07/30 11:40:11;;;;;;;1.47;1.37;;;27.20;97.80;;;;;;5068176;28;20450;-85
2022/07/30 11:42:41;;;;;;;3.03;1.30;;;27.20;96.70;;;;;;5068227;28;20451;-84
2022/07/30 11:45:33;;;;;;;1.13;1.10;;;27.20;97.80;;;;;;5068427;28;20454;-85
2022/07/30 11:48:09;;;;;;;1.43;1.33;;;27.10;95.70;;;;;;5063756;28;20471;-84
2022/07/30 11:50:37;;;;;;;1.40;1.30;;;27.10;95.60;;;;;;5069610;28;20434;-84
2022/07/30 11:53:06;;;;;;;1.27;1.17;;;27.10;95.90;;;;;;5069170;28;20438;-84
2022/07/30 11:55:39;;;;;;;1.50;1.30;;;27.10;95.90;;;;;;5068306;28;20442;-84
2022/07/30 11:58:11;;;;;;;2.70;1.20;;;27.10;96.00;;;;;;5068181;28;20536;-83
2022/07/30 12:00:44;;;;;;;1.60;1.50;;;27.10;94.40;;;;;;5097831;28;20450;-85
2022/07/30 12:03:14;;;;;;;1.47;1.37;;;27.20;94.00;;;;;;5069838;28;20446;-85
2022/07/30 12:05:42;;;;;;;4.10;1.30;;;27.20;96.00;;;;;;5068749;28;20482;-84
2022/07/30 12:08:12;;;;;;;1.97;1.10;;;27.20;94.70;;;;;;5068692;28;20832;-84
2022/07/30 12:11:02;;;;;;;1.30;1.20;;;27.30;94.20;;;;;;5063126;28;20445;-84
2022/07/30 12:13:30;;;;;;;1.40;1.30;;;27.30;95.80;;;;;;5064648;28;20461;-84
2022/07/30 12:16:14;;;;;;;1.57;1.30;;;27.30;97.70;;;;;;5065076;28;20855;-86
2022/07/30 12:18:43;;;;;;;1.37;1.27;;;27.30;93.20;;;;;;5070422;28;20474;-87
2022/07/30 12:21:14;;;;;;;1.50;1.40;;;27.20;92.30;;;;;;5096137;28;20478;-86
2022/07/30 12:23:43;;;;;;;1.30;1.20;;;27.30;93.60;;;;;;5072118;28;20469;-83
2022/07/30 12:26:23;;;;;;;1.23;1.13;;;27.20;93.70;;;;;;5068538;28;20470;-85
2022/07/30 12:28:55;;;;;;;1.30;1.20;;;27.30;92.30;;;;;;5068915;28;21287;-83
2022/07/30 12:31:23;;;;;;;1.10;1.00;;;27.30;93.40;;;;;;5066148;28;20458;-82
2022/07/30 12:33:51;;;;;;;1.30;1.20;;;27.40;95.10;;;;;;5066698;28;20457;-83
2022/07/30 12:36:28;;;;;;;1.80;1.58;;;27.40;93.60;;;;;;5067313;28;20460;-76
2022/07/30 12:38:56;;;;;;;2.40;1.57;;;27.50;93.00;;;;;;5068776;28;20220;-77
2022/07/30 12:41:41;;;;;;;1.60;1.50;;;27.50;94.90;;;;;;5070876;28;20442;-77
2022/07/30 12:44:09;;;;;;;1.23;1.10;;;27.50;96.20;;;;;;5066513;28;20508;-76
2022/07/30 12:46:40;;;;;;;2.30;1.40;;;27.50;97.10;;;;;;5068893;28;20536;-78
2022/07/30 12:49:08;;;;;;;1.43;1.33;;;27.50;94.50;;;;;;5068572;28;20466;-77
2022/07/30 12:51:52;;;;;;;1.50;1.40;;;27.50;97.10;;;;;;5069258;28;20496;-76
2022/07/30 12:54:28;;;;;;;1.70;1.60;;;27.50;94.00;;;;;;5070536;28;20980;-76
2022/07/30 12:56:59;;;;;;;1.37;1.27;;;27.50;94.50;;;;;;5072731;28;20451;-76
2022/07/30 12:59:29;;;;;;;1.47;1.00;;;27.50;92.60;;;;;;5072359;28;20567;-76
2022/07/30 13:01:59;;;;;;;1.57;1.27;;;27.50;93.80;;;;;;5070361;28;20446;-76
2022/07/30 13:04:28;;;;;;;1.17;1.07;;;27.50;94.00;;;;;;5069764;28;20458;-77
2022/07/30 13:07:07;;;;;;;1.40;1.30;;;27.50;94.30;;;;;;5069692;28;20478;-76
2022/07/30 13:09:37;;;;;;;1.30;1.20;;;27.60;93.30;;;;;;5065204;28;20846;-78
2022/07/30 13:12:08;;;;;;;2.60;1.20;;;27.70;91.70;;;;;;5070815;28;20435;-76